Time;durP1;ratioP1;P1;durP2;ratioP2;P2;SDS_P1;SDS_P2;PMS_P1;PMS_P2;Temp;Humidity;BMP_temperature;BMP_pressure;BME280_temperature;BME280_humidity;BME280_pressure;Samples;Min_cycle;Max_cycle;Signal;HPM_P1;HPM_P2
2022/01/28 00:03:00;;;;;;;1.60;1.50;;;;;;;2.40;100.00;100004.16;4930463;29;20401;-74
2022/01/28 00:05:25;;;;;;;1.52;1.40;;;;;;;2.41;100.00;100008.44;4926802;29;20028;-74
2022/01/28 00:07:52;;;;;;;2.13;2.03;;;;;;;2.42;100.00;100015.28;4934570;29;20115;-74
2022/01/28 00:10:18;;;;;;;1.60;1.60;;;;;;;2.42;100.00;99999.94;4934560;29;20119;-74
2022/01/28 00:13:05;;;;;;;1.50;1.45;;;;;;;2.45;100.00;100010.31;4934621;29;20028;-74
2022/01/28 00:15:47;;;;;;;1.95;1.77;;;;;;;2.49;100.00;100012.16;4934851;29;20043;-74
2022/01/28 00:18:36;;;;;;;1.25;1.25;;;;;;;2.59;100.00;100019.31;4934731;29;20046;-74
2022/01/28 00:37:49;;;;;;;2.05;1.95;;;;;;;2.68;100.00;100029.00;4915609;29;20445;-74
2022/01/28 00:40:11;;;;;;;1.00;1.00;;;;;;;2.68;100.00;100018.75;4915297;29;20032;-74
2022/01/28 00:42:36;;;;;;;7.75;2.28;;;;;;;2.76;100.00;100013.09;4915455;29;20032;-74
2022/01/28 00:45:02;;;;;;;1.88;1.77;;;;;;;2.68;100.00;100014.50;4915254;29;20035;-74
2022/01/28 00:47:27;;;;;;;1.42;1.33;;;;;;;2.69;100.00;100011.13;4915279;29;20036;-74
2022/01/28 00:49:53;;;;;;;1.13;1.13;;;;;;;2.74;100.00;100009.59;4915163;29;20024;-74
2022/01/28 00:52:18;;;;;;;2.40;2.25;;;;;;;2.79;100.00;100013.16;4915616;29;20060;-74
2022/01/28 00:54:43;;;;;;;1.13;1.13;;;;;;;2.74;100.00;100013.84;4915305;29;20107;-74
2022/01/28 00:57:09;;;;;;;1.45;1.45;;;;;;;2.76;100.00;100023.31;4915238;29;20384;-74
2022/01/28 00:59:34;;;;;;;2.13;2.03;;;;;;;2.80;100.00;100024.28;4915200;29;20084;-74
2022/01/28 05:27:22;;;;;;;1.15;1.15;;;;;;;2.49;96.39;100270.50;4919779;29;20035;-72
2022/01/28 05:29:48;;;;;;;1.45;1.35;;;;;;;2.21;98.72;100261.75;4918239;29;20028;-72
2022/01/28 05:32:13;;;;;;;4.32;2.95;;;;;;;2.20;98.61;100266.81;4918783;29;20027;-75
2022/01/28 05:34:40;;;;;;;1.10;1.10;;;;;;;2.19;97.62;100267.63;4894441;28;20061;-75
2022/01/28 05:37:07;;;;;;;2.53;1.55;;;;;;;2.24;96.97;100268.69;4937266;29;20091;-75
2022/01/28 05:39:32;;;;;;;1.50;1.20;;;;;;;2.03;97.66;100279.81;4937131;29;20035;-75
2022/01/28 05:41:58;;;;;;;3.05;1.83;;;;;;;1.89;98.44;100280.06;4937119;29;20024;-74
2022/01/28 05:44:23;;;;;;;1.63;1.52;;;;;;;1.99;98.27;100279.63;4937128;29;20072;-74
2022/01/28 05:46:50;;;;;;;1.63;1.60;;;;;;;1.93;98.04;100271.69;4935627;29;20127;-74
2022/01/28 05:49:16;;;;;;;0.95;0.95;;;;;;;1.83;98.65;100277.22;4937005;29;20614;-75
2022/01/28 05:51:42;;;;;;;2.22;2.13;;;;;;;1.80;98.66;100278.00;4937184;29;20027;-75
2022/01/28 05:54:08;;;;;;;2.45;2.30;;;;;;;1.70;99.24;100281.84;4936942;29;20028;-76
2022/01/28 05:56:34;;;;;;;1.60;1.52;;;;;;;1.53;99.71;100277.69;4936615;29;20028;-76
2022/01/28 05:58:59;;;;;;;3.65;1.83;;;;;;;1.56;99.67;100287.19;4936691;29;20088;-76
2022/01/28 06:01:25;;;;;;;0.98;0.98;;;;;;;1.27;100.00;100295.34;4936609;29;20032;-75
2022/01/28 06:03:51;;;;;;;2.05;1.95;;;;;;;1.33;100.00;100301.53;4927050;29;20111;-76
2022/01/28 06:06:21;;;;;;;1.58;1.48;;;;;;;1.26;100.00;100316.59;4933203;29;20027;-76
2022/01/28 06:08:51;;;;;;;1.30;1.27;;;;;;;1.24;100.00;100310.50;4936652;29;20034;-76
2022/01/28 06:11:17;;;;;;;1.70;1.38;;;;;;;1.24;100.00;100307.97;4936625;29;20028;-76
2022/01/28 06:13:43;;;;;;;1.00;1.00;;;;;;;1.17;100.00;100308.53;4936668;29;20038;-76
2022/01/28 06:16:09;;;;;;;2.03;1.92;;;;;;;1.18;100.00;100317.91;4936065;29;20035;-76
2022/01/28 06:18:35;;;;;;;1.23;1.17;;;;;;;1.36;100.00;100324.66;4936729;29;20055;-76
2022/01/28 06:21:01;;;;;;;1.42;1.33;;;;;;;1.42;100.00;100340.22;4936376;29;20469;-76
2022/01/28 06:23:27;;;;;;;2.08;1.55;;;;;;;1.36;100.00;100342.53;4936530;29;20042;-76
2022/01/28 06:25:52;;;;;;;0.98;0.98;;;;;;;1.21;100.00;100356.34;4934880;29;20027;-76
2022/01/28 06:28:17;;;;;;;1.13;1.10;;;;;;;1.36;100.00;100351.06;4936256;29;20031;-76
2022/01/28 06:30:43;;;;;;;2.45;1.65;;;;;;;1.42;100.00;100363.22;4936211;29;20023;-76
2022/01/28 06:33:11;;;;;;;1.10;1.10;;;;;;;1.42;100.00;100355.56;4930891;29;20055;-76
2022/01/28 06:35:36;;;;;;;1.45;1.45;;;;;;;1.45;100.00;100360.78;4928148;29;20031;-76
2022/01/28 06:38:02;;;;;;;1.95;1.85;;;;;;;1.54;99.96;100369.72;4935880;29;20585;-76
2022/01/28 06:40:27;;;;;;;3.22;3.03;;;;;;;1.57;99.96;100376.66;4936007;29;20150;-76
2022/01/28 06:42:52;;;;;;;3.05;2.78;;;;;;;1.65;100.00;100388.09;4935967;29;20031;-76
2022/01/28 06:45:18;;;;;;;4.97;4.38;;;;;;;1.87;98.81;100376.22;4935932;29;20366;-76
2022/01/28 06:47:43;;;;;;;8.50;4.22;;;;;;;1.99;97.85;100376.75;4935977;29;20074;-76
2022/01/28 06:50:10;;;;;;;2.17;2.08;;;;;;;2.03;97.96;100381.16;4935948;29;20023;-76
2022/01/28 06:52:36;;;;;;;3.60;3.00;;;;;;;2.10;98.24;100375.50;4935750;29;20496;-76
2022/01/28 06:55:03;;;;;;;2.35;2.15;;;;;;;1.85;97.66;100382.97;4935899;29;20042;-75
2022/01/28 06:57:29;;;;;;;1.40;1.23;;;;;;;1.84;98.23;100376.06;4935633;29;20102;-76
2022/01/28 06:59:55;;;;;;;1.92;1.35;;;;;;;1.94;98.97;100374.00;4935154;29;20382;-76
2022/01/28 07:02:20;;;;;;;2.25;2.15;;;;;;;1.82;99.39;100382.81;4930442;29;20024;-76
2022/01/28 07:04:45;;;;;;;3.65;1.50;;;;;;;2.11;98.52;100377.25;4927587;29;20090;-76
2022/01/28 07:07:11;;;;;;;2.35;2.22;;;;;;;1.94;98.20;100393.56;4935422;29;20594;-76
2022/01/28 07:09:36;;;;;;;2.78;2.58;;;;;;;2.02;97.90;100387.09;4935634;29;20059;-76
2022/01/28 07:12:02;;;;;;;1.88;1.77;;;;;;;2.01;97.77;100393.00;4935613;29;20111;-76
2022/01/28 07:14:28;;;;;;;2.05;1.95;;;;;;;1.98;97.04;100405.66;4935440;29;20040;-75
2022/01/28 07:16:53;;;;;;;1.85;1.75;;;;;;;2.03;97.55;100402.50;4935211;29;20126;-76
2022/01/28 07:19:18;;;;;;;1.23;1.23;;;;;;;2.03;97.44;100409.28;4929774;29;20021;-76
2022/01/28 07:21:44;;;;;;;2.67;2.45;;;;;;;2.01;97.12;100405.78;4913217;29;20055;-76
2022/01/28 07:24:09;;;;;;;1.55;1.45;;;;;;;2.13;97.02;100405.41;4916217;29;20024;-76
2022/01/28 07:26:34;;;;;;;1.25;1.23;;;;;;;2.17;97.26;100415.84;4916093;29;20536;-76
2022/01/28 07:29:00;;;;;;;2.55;2.35;;;;;;;2.29;96.22;100418.94;4916176;29;20048;-76
2022/01/28 07:31:25;;;;;;;1.92;1.83;;;;;;;2.28;95.47;100406.97;4916570;29;20047;-76
2022/01/28 07:33:51;;;;;;;1.73;1.63;;;;;;;2.39;95.65;100401.41;4924103;29;20020;-76
2022/01/28 07:36:16;;;;;;;2.35;2.22;;;;;;;2.35;94.92;100396.97;4931628;29;20075;-73
2022/01/28 07:38:41;;;;;;;1.67;1.58;;;;;;;2.39;94.74;100393.72;4935178;29;20034;-73
2022/01/28 07:41:07;;;;;;;1.35;1.30;;;;;;;2.30;95.13;100400.22;4934958;29;20032;-73
2022/01/28 07:43:37;;;;;;;5.43;2.15;;;;;;;2.28;95.71;100404.41;4935025;29;20036;-73
2022/01/28 07:46:02;;;;;;;2.35;2.25;;;;;;;2.34;95.72;100408.03;4934949;29;20106;-76
2022/01/28 07:48:28;;;;;;;3.80;3.47;;;;;;;2.35;95.96;100402.09;4935043;29;20457;-75
2022/01/28 07:50:53;;;;;;;2.72;1.98;;;;;;;2.39;95.08;100403.97;4934889;29;20031;-76
2022/01/28 07:53:18;;;;;;;2.92;2.60;;;;;;;2.38;94.87;100412.44;4934946;29;20038;-76
2022/01/28 07:55:44;;;;;;;4.93;2.28;;;;;;;2.49;94.68;100424.00;4934669;29;20027;-76
2022/01/28 07:58:09;;;;;;;3.80;3.47;;;;;;;2.57;94.07;100425.19;4934746;29;20027;-76
2022/01/28 08:00:35;;;;;;;2.42;2.03;;;;;;;2.71;93.08;100421.50;4934753;29;20039;-76
2022/01/28 08:03:00;;;;;;;4.68;2.63;;;;;;;2.53;92.62;100413.94;4929587;29;20039;-76
2022/01/28 08:05:26;;;;;;;2.78;2.45;;;;;;;2.73;93.33;100407.06;4926673;29;20023;-73
2022/01/28 08:07:52;;;;;;;1.80;1.73;;;;;;;2.69;93.06;100430.78;4934690;29;20035;-73
2022/01/28 08:10:17;;;;;;;2.45;2.25;;;;;;;2.57;93.07;100436.28;4934724;29;20136;-73
2022/01/28 08:12:48;;;;;;;1.73;1.63;;;;;;;2.83;92.58;100434.75;4936630;29;20032;-73
2022/01/28 08:15:14;;;;;;;3.92;1.30;;;;;;;2.73;92.72;100435.22;4938739;29;20098;-73
2022/01/28 08:17:40;;;;;;;2.67;1.20;;;;;;;2.86;91.64;100443.41;4938701;29;20028;-73
2022/01/28 08:20:06;;;;;;;1.48;1.42;;;;;;;2.74;92.43;100454.88;4938604;29;20034;-73
2022/01/28 08:22:31;;;;;;;0.70;0.70;;;;;;;2.89;91.93;100461.41;4938478;29;20520;-73
2022/01/28 08:24:57;;;;;;;1.83;1.73;;;;;;;2.84;91.62;100466.34;4938675;29;20043;-73
2022/01/28 08:27:22;;;;;;;2.80;1.23;;;;;;;2.86;91.62;100454.50;4938064;29;20031;-73
2022/01/28 08:29:47;;;;;;;2.20;1.77;;;;;;;3.09;90.98;100455.38;4938484;29;20115;-73
2022/01/28 08:32:13;;;;;;;4.93;2.28;;;;;;;3.44;89.46;100450.75;4933543;29;20020;-73
2022/01/28 08:34:38;;;;;;;3.45;2.47;;;;;;;3.37;89.43;100446.22;4929922;29;20537;-73
2022/01/28 08:37:04;;;;;;;4.47;1.23;;;;;;;3.53;88.48;100449.41;4938024;29;20035;-73
2022/01/28 08:39:31;;;;;;;1.48;1.48;;;;;;;3.69;87.67;100452.53;4938425;29;20140;-73
2022/01/28 08:41:57;;;;;;;1.83;1.42;;;;;;;3.86;86.89;100441.19;4938030;29;20024;-73
2022/01/28 08:44:22;;;;;;;3.20;1.77;;;;;;;4.28;83.84;100446.94;4938211;29;20450;-73
2022/01/28 08:46:47;;;;;;;0.80;0.80;;;;;;;4.34;83.88;100466.81;4938052;29;20389;-73
2022/01/28 08:49:13;;;;;;;2.60;2.22;;;;;;;4.16;84.58;100466.16;4938190;29;20043;-73
2022/01/28 08:51:38;;;;;;;3.75;1.88;;;;;;;4.36;84.62;100466.06;4938151;29;20047;-73
2022/01/28 08:54:04;;;;;;;1.52;1.42;;;;;;;4.51;83.04;100464.81;4938450;29;20449;-73
2022/01/28 08:56:29;;;;;;;1.77;1.58;;;;;;;5.27;80.51;100456.09;4937683;29;20031;-73
2022/01/28 08:58:54;;;;;;;2.75;1.75;;;;;;;6.00;76.53;100465.13;4938232;29;20027;-73
2022/01/28 09:01:20;;;;;;;2.08;1.88;;;;;;;5.34;78.93;100464.06;4937915;29;20468;-73
2022/01/28 09:03:46;;;;;;;0.73;0.73;;;;;;;4.87;80.06;100477.97;4928435;29;20028;-73
2022/01/28 09:06:11;;;;;;;2.90;1.80;;;;;;;4.72;80.57;100470.66;4933744;29;20027;-73
2022/01/28 09:08:37;;;;;;;2.95;1.98;;;;;;;4.56;81.75;100463.28;4937775;29;20473;-73
2022/01/28 09:13:47;;;;;;;2.25;2.15;;;;;;;4.48;82.07;100467.28;4937945;29;20492;-73
2022/01/28 09:16:12;;;;;;;1.73;1.63;;;;;;;4.35;82.18;100484.84;4937346;29;20134;-73
2022/01/28 09:18:38;;;;;;;1.95;0.65;;;;;;;4.28;82.29;100488.00;4937538;29;20028;-73
2022/01/28 09:21:03;;;;;;;1.63;1.60;;;;;;;4.23;82.55;100481.84;4937476;29;20115;-73
2022/01/28 09:23:28;;;;;;;1.25;1.25;;;;;;;4.51;82.13;100470.81;4937074;29;20132;-73
2022/01/28 09:25:54;;;;;;;3.65;1.27;;;;;;;4.41;82.18;100467.91;4937247;29;20086;-73
2022/01/28 09:28:19;;;;;;;0.98;0.98;;;;;;;6.34;75.06;100465.22;4937600;29;20032;-73
2022/01/28 09:30:45;;;;;;;1.48;1.38;;;;;;;7.04;72.16;100462.63;4937399;29;20038;-73
2022/01/28 09:33:10;;;;;;;1.05;1.02;;;;;;;6.80;70.14;100458.63;4931612;29;20123;-73
2022/01/28 09:35:36;;;;;;;1.20;1.20;;;;;;;6.06;73.43;100467.88;4929213;29;20056;-73
2022/01/28 09:38:02;;;;;;;1.30;1.20;;;;;;;5.34;76.77;100474.34;4937152;29;20031;-73
2022/01/28 09:40:28;;;;;;;2.83;1.60;;;;;;;5.02;77.80;100480.16;4937016;29;20047;-73
2022/01/28 09:42:54;;;;;;;4.18;1.67;;;;;;;6.08;75.07;100476.50;4937182;29;20031;-73
2022/01/28 09:45:24;;;;;;;1.30;1.20;;;;;;;7.31;69.29;100471.00;4936935;29;20030;-73
2022/01/28 09:47:53;;;;;;;0.70;0.70;;;;;;;6.57;70.47;100467.47;4935666;29;20027;-73
2022/01/28 09:50:21;;;;;;;0.75;0.75;;;;;;;6.15;73.29;100469.00;4937021;29;20036;-73
2022/01/28 09:52:47;;;;;;;1.48;1.38;;;;;;;5.91;74.32;100476.91;4937403;29;20024;-73
2022/01/28 09:55:13;;;;;;;0.70;0.70;;;;;;;5.80;75.47;100483.41;4936986;29;20026;-73
2022/01/28 09:57:38;;;;;;;1.20;1.20;;;;;;;5.80;75.73;100491.13;4936964;29;20529;-73
2022/01/28 10:00:06;;;;;;;1.80;1.70;;;;;;;5.99;74.72;100489.09;4936807;29;20032;-73
2022/01/28 10:02:47;;;;;;;1.73;1.63;;;;;;;6.17;73.48;100487.03;4931020;28;20035;-73
2022/01/28 10:05:30;;;;;;;0.80;0.80;;;;;;;6.99;69.33;100487.41;4928645;29;20031;-73
2022/01/28 10:08:14;;;;;;;0.60;0.60;;;;;;;6.70;70.48;100490.16;4935446;29;20458;-73
2022/01/28 10:10:54;;;;;;;1.05;1.05;;;;;;;6.59;70.35;100489.00;4936663;29;20034;-73
2022/01/28 10:13:25;;;;;;;1.13;1.10;;;;;;;6.71;69.80;100486.72;4936626;29;20474;-73
2022/01/28 10:16:00;;;;;;;0.63;0.63;;;;;;;6.43;69.94;100488.63;4936098;29;20468;-73
2022/01/28 10:18:45;;;;;;;0.85;0.85;;;;;;;6.11;71.32;100486.88;4936690;29;20031;-73
2022/01/28 10:21:32;;;;;;;0.70;0.70;;;;;;;5.51;72.84;100487.72;4936350;29;20024;-73
2022/01/28 10:24:15;;;;;;;1.80;1.25;;;;;;;5.27;73.67;100497.22;4936424;29;20036;-73
2022/01/28 10:26:44;;;;;;;0.77;0.77;;;;;;;5.28;73.59;100484.44;4936236;29;20032;-73
2022/01/28 10:29:14;;;;;;;1.05;1.05;;;;;;;5.33;73.03;100482.88;4936450;29;20027;-73
2022/01/28 10:31:47;;;;;;;1.48;1.38;;;;;;;5.48;73.04;100491.88;4935775;29;20617;-73
2022/01/28 10:34:28;;;;;;;0.95;0.95;;;;;;;5.52;73.37;100501.44;4924531;29;20035;-73
2022/01/28 10:37:10;;;;;;;0.60;0.57;;;;;;;5.76;72.19;100502.16;4898177;29;20024;-73
2022/01/28 10:39:50;;;;;;;0.70;0.70;;;;;;;5.84;72.80;100495.50;4898479;29;20103;-73
2022/01/28 10:42:19;;;;;;;1.75;1.13;;;;;;;5.90;71.39;100493.13;4898139;29;20037;-73
2022/01/28 10:44:54;;;;;;;0.75;0.75;;;;;;;6.16;71.96;100490.44;4898210;29;20028;-73
2022/01/28 10:47:45;;;;;;;0.50;0.50;;;;;;;6.01;70.67;100488.31;4897780;29;20036;-73
2022/01/28 10:50:23;;;;;;;0.80;0.80;;;;;;;6.05;69.12;100482.44;4898175;29;20064;-73
2022/01/28 10:53:07;;;;;;;0.90;0.90;;;;;;;5.93;68.96;100488.09;4898087;29;20108;-73
2022/01/28 10:55:35;;;;;;;0.57;0.57;;;;;;;6.12;68.78;100483.47;4898153;29;20056;-73
2022/01/28 10:58:05;;;;;;;1.08;1.08;;;;;;;6.03;69.84;100493.50;4897785;29;20043;-73
2022/01/28 11:00:35;;;;;;;;;;;;;;;5.96;69.09;100491.59;4898194;29;20024;-73
2022/01/28 11:05:26;;;;;;;0.70;0.70;;;;;;;6.27;68.95;100494.19;5118142;27;20395;-74
2022/01/28 11:07:52;;;;;;;0.85;0.85;;;;;;;6.31;67.93;100490.84;5109548;28;20028;-73
2022/01/28 11:10:18;;;;;;;0.85;0.85;;;;;;;6.49;66.73;100495.63;5109853;28;20026;-73
2022/01/28 11:12:43;;;;;;;1.00;1.00;;;;;;;6.70;66.42;100487.56;5109864;28;20366;-73
2022/01/28 11:15:09;;;;;;;1.65;1.55;;;;;;;7.06;66.11;100491.88;5109678;28;20095;-73
2022/01/28 11:17:36;;;;;;;1.00;1.00;;;;;;;7.13;65.49;100488.63;5110102;28;20528;-63
2022/01/28 11:20:03;;;;;;;1.10;1.00;;;;;;;6.79;64.75;100490.38;5109638;28;20073;-63
2022/01/28 11:23:08;;;;;;;3.00;0.98;;;;;;;6.36;66.43;100515.00;5109438;28;20019;-63
2022/01/28 11:25:48;;;;;;;0.50;0.50;;;;;;;5.95;68.54;100510.41;5109509;28;20020;-63
2022/01/28 11:28:14;;;;;;;0.60;0.60;;;;;;;5.56;68.78;100505.81;5109589;28;20035;-63
2022/01/28 11:30:50;;;;;;;2.45;1.10;;;;;;;5.64;68.23;100504.34;5078802;28;20055;-63
2022/01/28 11:33:17;;;;;;;0.70;0.70;;;;;;;5.65;69.14;100508.66;5051059;28;20084;-63
2022/01/28 11:36:00;;;;;;;0.68;0.68;;;;;;;5.64;69.97;100504.34;5060215;28;20388;-63
2022/01/28 11:38:26;;;;;;;1.35;1.30;;;;;;;5.45;70.23;100496.91;5068842;28;20016;-63
2022/01/28 11:41:00;;;;;;;3.80;1.00;;;;;;;5.46;70.79;100503.78;5068692;28;20096;-63
2022/01/28 11:43:30;;;;;;;1.48;0.93;;;;;;;5.48;71.03;100497.03;5068563;28;20051;-63
2022/01/28 11:46:21;;;;;;;0.80;0.80;;;;;;;5.55;70.83;100504.06;5068339;28;20199;-63
2022/01/28 11:49:11;;;;;;;5.68;1.38;;;;;;;5.67;69.91;100501.88;5063442;28;20408;-63
2022/01/28 11:51:44;;;;;;;0.93;0.93;;;;;;;5.86;69.66;100501.59;5068297;28;20027;-63
2022/01/28 11:54:14;;;;;;;1.10;1.02;;;;;;;5.74;69.69;100496.09;5068426;28;20094;-63
2022/01/28 11:57:08;;;;;;;0.93;0.93;;;;;;;5.96;69.62;100486.47;5068056;28;20075;-63
2022/01/28 11:59:34;;;;;;;1.48;1.25;;;;;;;6.29;68.98;100492.53;5068233;28;20466;-63
2022/01/28 12:01:59;;;;;;;0.80;0.80;;;;;;;6.15;70.28;100486.13;5061744;28;20040;-63
2022/01/28 12:04:29;;;;;;;0.88;0.88;;;;;;;5.98;70.02;100489.94;5053779;28;20032;-63
2022/01/28 12:07:04;;;;;;;2.67;1.33;;;;;;;5.61;72.55;100492.31;5067827;28;20025;-63
2022/01/28 12:09:32;;;;;;;0.73;0.73;;;;;;;5.15;76.30;100502.84;5068126;28;20032;-63
2022/01/28 12:11:59;;;;;;;0.90;0.90;;;;;;;4.83;79.64;100505.25;5067962;28;20027;-63
2022/01/28 12:14:49;;;;;;;1.42;1.08;;;;;;;4.85;81.72;100513.03;5067715;28;20474;-63
2022/01/28 12:17:50;;;;;;;1.38;1.27;;;;;;;4.85;82.82;100513.91;5054374;28;20037;-63
2022/01/28 12:20:16;;;;;;;1.45;1.38;;;;;;;4.87;81.69;100507.09;5032883;28;20037;-63
2022/01/28 12:23:09;;;;;;;0.93;0.93;;;;;;;5.34;78.47;100502.59;5054421;28;20032;-64
2022/01/28 12:25:46;;;;;;;3.20;0.80;;;;;;;6.21;75.81;100494.00;5054694;28;20072;-63
2022/01/28 12:28:41;;;;;;;1.98;1.83;;;;;;;6.12;75.41;100493.75;5054601;28;20094;-63
2022/01/28 12:31:13;;;;;;;6.38;1.90;;;;;;;5.63;74.88;100495.78;5054411;28;20035;-64
2022/01/28 12:33:42;;;;;;;2.50;1.45;;;;;;;5.53;74.16;100490.31;5039726;28;20029;-63
2022/01/28 12:36:10;;;;;;;0.77;0.77;;;;;;;5.49;72.53;100483.34;5048850;28;20028;-63
2022/01/28 12:38:42;;;;;;;0.98;0.98;;;;;;;5.50;74.19;100488.50;5054326;28;20082;-63
2022/01/28 12:41:09;;;;;;;5.97;2.47;;;;;;;5.36;75.22;100487.22;5054246;28;20572;-63
2022/01/28 12:43:37;;;;;;;2.15;2.05;;;;;;;6.21;72.67;100478.56;5053889;28;20331;-63
2022/01/28 12:46:07;;;;;;;2.88;2.28;;;;;;;6.59;69.62;100465.84;5053984;28;20029;-63
2022/01/28 12:48:33;;;;;;;;;;;;;;;6.90;67.05;100463.16;5054587;28;20398;-63
2022/01/28 12:51:01;;;;;;;3.30;1.40;;;;;;;7.14;66.82;100464.56;5054225;28;19909;-63
2022/01/28 12:53:57;;;;;;;2.45;1.25;;;;;;;7.20;67.14;100456.97;5053998;28;20025;-63
2022/01/28 12:56:30;;;;;;;0.90;0.90;;;;;;;7.26;67.34;100466.59;5045043;28;20041;-64
2022/01/28 12:58:56;;;;;;;1.40;1.13;;;;;;;6.81;66.84;100470.66;5053921;28;20054;-63
2022/01/28 13:01:21;;;;;;;0.65;0.65;;;;;;;6.65;68.84;100465.97;5054036;28;20036;-63
2022/01/28 13:04:02;;;;;;;4.55;1.42;;;;;;;6.59;68.34;100460.69;5037774;28;20025;-63
2022/01/28 13:09:24;;;;;;;1.33;1.23;;;;;;;6.68;66.91;100456.63;5053735;28;20033;-63
2022/01/28 13:11:57;;;;;;;0.63;0.63;;;;;;;6.47;67.70;100455.22;5048440;28;20029;-63
2022/01/28 13:14:32;;;;;;;1.27;1.10;;;;;;;6.42;69.03;100462.81;5052291;28;20017;-64
2022/01/28 13:16:58;;;;;;;8.95;1.77;;;;;;;6.06;68.71;100468.75;5053313;28;20033;-64
2022/01/28 13:19:23;;;;;;;0.82;0.82;;;;;;;5.70;69.79;100472.81;5053538;28;20106;-63
2022/01/28 13:21:50;;;;;;;8.88;1.23;;;;;;;5.80;70.89;100480.84;5053452;28;20028;-63
2022/01/28 13:24:26;;;;;;;1.15;0.90;;;;;;;5.85;72.06;100479.28;5053318;28;20028;-63
2022/01/28 13:26:54;;;;;;;0.93;0.93;;;;;;;5.84;72.75;100469.78;5052218;28;20033;-63
2022/01/28 13:29:32;;;;;;;0.90;0.90;;;;;;;5.64;73.13;100476.06;5053134;28;20029;-63
2022/01/28 13:31:58;;;;;;;1.00;1.00;;;;;;;5.56;73.75;100472.41;5047871;28;20038;-63
2022/01/28 13:34:25;;;;;;;1.00;1.00;;;;;;;5.51;73.20;100468.81;5038835;28;20430;-63
2022/01/28 13:36:53;;;;;;;1.38;1.27;;;;;;;5.59;73.48;100465.66;5053068;28;20096;-63
2022/01/28 13:39:21;;;;;;;1.10;1.02;;;;;;;5.51;72.93;100463.69;5052992;28;20533;-63
2022/01/28 13:41:51;;;;;;;3.08;1.77;;;;;;;5.41;73.62;100466.00;5053068;28;20104;-63
2022/01/28 13:44:27;;;;;;;0.68;0.68;;;;;;;5.32;75.60;100465.72;5053116;28;20082;-63
2022/01/28 13:47:12;;;;;;;12.43;1.77;;;;;;;5.14;75.43;100465.16;5052905;28;20069;-63
2022/01/28 13:49:39;;;;;;;15.65;1.52;;;;;;;5.22;75.31;100465.38;5053225;28;20021;-63
2022/01/28 13:52:44;;;;;;;0.90;0.90;;;;;;;5.32;75.55;100470.00;5053001;28;20025;-63
2022/01/28 13:55:35;;;;;;;1.30;1.30;;;;;;;5.60;75.24;100471.66;5052882;28;20048;-63
2022/01/28 13:58:03;;;;;;;1.95;1.85;;;;;;;5.51;73.63;100467.16;5052937;28;20025;-64
2022/01/28 14:00:49;;;;;;;1.35;1.25;;;;;;;5.29;73.50;100468.19;5052637;28;20102;-63
2022/01/28 14:03:16;;;;;;;2.22;1.52;;;;;;;5.28;73.69;100473.28;5039942;28;20020;-64
2022/01/28 14:05:55;;;;;;;1.05;1.05;;;;;;;5.18;74.35;100467.00;5042774;28;20041;-63
2022/01/28 14:08:41;;;;;;;2.72;1.77;;;;;;;5.37;74.34;100469.31;5052620;28;20494;-63
2022/01/28 14:11:31;;;;;;;0.80;0.80;;;;;;;5.68;72.72;100470.19;5052422;28;20119;-64
2022/01/28 14:14:05;;;;;;;1.20;1.20;;;;;;;5.64;72.31;100474.38;5052563;28;20108;-63
2022/01/28 14:16:30;;;;;;;1.00;1.00;;;;;;;5.45;71.88;100476.34;5052195;28;20035;-64
2022/01/28 14:18:56;;;;;;;0.80;0.80;;;;;;;5.37;71.87;100471.88;5052471;28;20029;-63
2022/01/28 14:21:21;;;;;;;1.00;1.00;;;;;;;5.47;72.02;100472.16;5052276;28;20045;-64
2022/01/28 14:23:46;;;;;;;1.15;1.15;;;;;;;5.62;71.71;100472.59;5052066;28;20021;-63
2022/01/28 14:26:12;;;;;;;1.52;1.42;;;;;;;5.74;72.30;100485.78;5052011;28;20052;-63
2022/01/28 14:28:50;;;;;;;1.23;1.13;;;;;;;5.67;71.69;100478.75;5052377;28;20021;-64
2022/01/28 14:31:16;;;;;;;1.80;1.70;;;;;;;5.65;71.35;100485.53;5052166;28;20528;-64
2022/01/28 14:33:44;;;;;;;2.63;2.45;;;;;;;5.46;71.99;100472.94;5036911;28;20033;-64
2022/01/28 14:36:10;;;;;;;1.40;1.08;;;;;;;5.32;72.51;100473.44;5046647;28;20020;-64
2022/01/28 14:38:35;;;;;;;1.55;1.30;;;;;;;5.29;72.55;100469.88;5051848;28;20024;-63
2022/01/28 14:41:00;;;;;;;0.60;0.60;;;;;;;5.21;72.57;100473.91;5052132;28;20508;-63
2022/01/28 14:43:25;;;;;;;0.90;0.90;;;;;;;5.07;71.31;100474.34;5052055;28;20033;-63
2022/01/28 14:45:51;;;;;;;1.45;1.35;;;;;;;5.04;71.81;100465.69;5051801;28;20115;-63
2022/01/28 14:48:20;;;;;;;8.30;2.55;;;;;;;5.02;72.59;100478.47;5051966;28;20028;-63
2022/01/28 14:50:46;;;;;;;1.77;1.67;;;;;;;5.02;71.71;100475.03;5051816;28;20029;-63
2022/01/28 14:53:11;;;;;;;2.70;2.17;;;;;;;4.97;72.56;100476.59;5051892;28;20389;-63
2022/01/28 14:55:40;;;;;;;2.47;1.13;;;;;;;4.97;73.17;100481.72;5051784;28;20021;-63
2022/01/28 14:58:06;;;;;;;1.70;1.48;;;;;;;5.04;73.16;100478.53;5051926;28;20025;-63
2022/01/28 15:00:31;;;;;;;2.13;1.90;;;;;;;5.02;72.58;100485.31;5051913;28;20438;-63
2022/01/28 15:02:57;;;;;;;1.20;1.20;;;;;;;4.89;73.30;100479.78;5039165;28;20017;-64
2022/01/28 15:05:22;;;;;;;0.63;0.63;;;;;;;4.82;72.88;100490.66;5043704;28;20438;-63
2022/01/28 15:07:47;;;;;;;1.85;1.77;;;;;;;4.75;73.21;100493.00;5051553;28;20543;-63
2022/01/28 15:10:13;;;;;;;6.47;1.52;;;;;;;4.76;73.61;100500.75;5051927;28;20043;-63
2022/01/28 15:12:40;;;;;;;2.55;1.20;;;;;;;4.67;73.64;100497.88;5051971;28;20056;-63
2022/01/28 15:15:05;;;;;;;1.05;1.05;;;;;;;4.80;73.20;100504.31;5051751;28;20414;-64
2022/01/28 15:17:31;;;;;;;1.63;1.55;;;;;;;4.70;73.96;100500.56;5051460;28;20112;-63
2022/01/28 15:19:58;;;;;;;2.92;1.33;;;;;;;4.66;74.07;100495.25;5051447;28;20033;-63
2022/01/28 15:22:24;;;;;;;1.30;1.05;;;;;;;4.59;74.21;100491.59;5051891;28;20394;-63
2022/01/28 15:24:49;;;;;;;2.10;1.67;;;;;;;4.51;74.22;100495.63;5051654;28;20025;-63
2022/01/28 15:27:16;;;;;;;1.40;1.35;;;;;;;4.44;74.49;100499.66;5051522;28;20505;-63
2022/01/28 15:37:21;;;;;;;1.42;1.42;;;;;;;4.33;74.02;100486.47;5031600;28;20035;-63
2022/01/28 15:39:47;;;;;;;0.90;0.90;;;;;;;4.37;74.33;100493.44;5031497;28;20100;-63
2022/01/28 15:42:13;;;;;;;1.20;1.17;;;;;;;4.41;73.50;100498.69;5031669;28;20026;-63
2022/01/28 15:44:40;;;;;;;7.03;1.45;;;;;;;4.39;74.24;100491.78;5031463;28;20040;-63
2022/01/28 15:47:07;;;;;;;3.03;2.05;;;;;;;4.34;74.46;100493.34;5031219;28;20118;-63
2022/01/28 15:49:32;;;;;;;1.85;1.40;;;;;;;4.38;73.95;100496.88;5031664;28;20026;-63
2022/01/28 15:51:58;;;;;;;1.27;1.15;;;;;;;4.38;74.42;100507.16;5034713;28;20075;-63
2022/01/28 15:54:23;;;;;;;2.17;2.05;;;;;;;4.35;75.10;100507.94;5035220;28;20432;-65
2022/01/28 15:56:49;;;;;;;1.33;1.23;;;;;;;4.47;74.48;100504.03;5034908;28;20037;-65
2022/01/28 15:59:14;;;;;;;0.60;0.60;;;;;;;4.41;74.49;100508.97;5035259;28;20052;-65
2022/01/28 16:01:40;;;;;;;1.60;1.50;;;;;;;4.42;75.15;100508.13;5034463;28;20060;-66
2022/01/28 16:04:05;;;;;;;1.83;1.73;;;;;;;4.41;75.11;100514.97;5037121;28;20053;-65
2022/01/28 16:06:31;;;;;;;1.30;1.13;;;;;;;4.42;74.85;100510.69;5052342;28;20040;-65
2022/01/28 16:08:59;;;;;;;1.33;1.33;;;;;;;4.37;74.46;100513.97;5054885;28;20508;-65
2022/01/28 16:11:34;;;;;;;1.33;1.25;;;;;;;4.26;75.23;100512.75;5054922;28;20371;-65
2022/01/28 16:14:15;;;;;;;5.75;1.42;;;;;;;4.12;76.37;100521.63;5054769;28;20439;-65
2022/01/28 16:19:27;;;;;;;7.32;3.15;;;;;;;4.21;76.34;100516.84;5055106;28;20098;-65
2022/01/28 16:21:54;;;;;;;1.08;1.08;;;;;;;4.09;76.48;100516.38;5054617;28;20118;-65
2022/01/28 16:24:20;;;;;;;2.80;2.47;;;;;;;4.33;76.32;100522.38;5054394;28;20032;-65
2022/01/28 16:26:45;;;;;;;1.20;1.20;;;;;;;4.23;75.64;100525.44;5054226;28;20393;-65
2022/01/28 16:29:11;;;;;;;1.40;1.13;;;;;;;4.30;75.27;100532.56;5054704;28;20032;-65
2022/01/28 16:31:36;;;;;;;1.17;1.17;;;;;;;4.29;75.40;100541.06;5053186;28;20503;-65
2022/01/28 16:34:03;;;;;;;1.35;1.35;;;;;;;4.30;76.84;100547.94;5036115;28;20017;-65
2022/01/28 16:36:29;;;;;;;1.73;1.67;;;;;;;4.27;76.67;100547.84;5051225;28;20067;-65
2022/01/28 16:38:54;;;;;;;0.60;0.60;;;;;;;4.36;76.23;100558.44;5054312;28;20025;-65
2022/01/28 16:41:22;;;;;;;2.90;2.28;;;;;;;4.36;77.04;100548.16;5054319;28;20036;-66
2022/01/28 16:44:00;;;;;;;1.65;1.55;;;;;;;4.31;75.08;100557.41;5054142;28;20067;-65
2022/01/28 16:46:26;;;;;;;2.25;1.30;;;;;;;4.20;76.00;100558.69;5054157;28;20025;-65